FOLSOM LAKE (FOL)

Elevation: 466' · AMERICAN R basin · Operator: US Bureau of Reclamation

Provisional data, subject to change.
Query executed Thursday at 0:56:38   clock

Select a sensor type for a plot of data.
Note: Reservoir Flows are daily averages.

Earlier

Date RES ELE    STORAGE    RES CHG    TOC STO    ABV TOC    OUTFLOW    INFLOW    EVAP    FNF    RIV REL    PPT INC    SPILL    DC PUMP    DIS PWR   
 FEET   AF   AF   AF   AF   CFS   CFS   CFS   CFS   CFS   INCHES   CFS   CFS   CFS  
04/29/2015 425.81 576865 -516 796718 -219853 1202 991 49 2273 0 0.00 0 95 1107
04/30/2015 425.68 575746 -1119 802352 -226606 1282 776 58 1821 0 0.00 0 101 1181
05/01/2015 425.59 574971 -775 807986 -- 1261 933 63 1582 0 0.00 0 105 1156
05/02/2015 425.54 574541 -430 813620 -- 1290 1136 63 1549 0 0.00 0 115 1175
05/03/2015 425.51 574283 -- 819254 -244970 1102 1093 121 1551 0 0.00 0 126 976
05/04/2015 425.48 574024 -259 824887 -250863 1046 944 29 1361 0 0.00 0 116 930
05/05/2015 425.35 572905 -- 830521 -257616 1123 585 26 1022 0 0.00 0 40 1083
05/06/2015 425.13 571012 -1893 836155 -265143 1474 575 55 859 0 0.00 0 108 1366
05/07/2015 424.93 569296 -1716 841789 -272493 1471 646 40 861 0 0.17 0 107 1364
05/08/2015 424.84 568528 -768 847422 -- 1404 1080 63 1280 0 0.00 0 91 1313
05/09/2015 424.75 567760 -768 853056 -- 1322 984 49 1256 e 0 0.00 0 97 1225
05/10/2015 424.62 566650 -1110 858690 -292040 1353 844 51 1256 e 0 0.00 0 112 1241
05/11/2015 424.47 565371 -1279 864324 -298953 1546 972 71 1200 0 0.00 0 107 1439
05/12/2015 424.28 563749 -1622 869958 -306209 1375 611 54 690 e 0 0.00 0 98 1277
05/13/2015 424.12 562384 -1365 875592 -313208 1324 687 51 776 0 0.00 0 84 1240
05/14/2015 424.07 561957 -427 881225 -319268 1309 1145 51 690 e 0 0.00 0 88 1221
05/15/2015 423.93 560768 -1189 886859 -- 1272 724 51 1137 0 0.00 0 88 1184
05/16/2015 423.83 559922 -846 892493 -- 1286 910 51 1258 0 0.00 0 96 1190
05/17/2015 423.70 558823 -1099 898127 -339304 1434 931 51 1132 0 0.00 0 81 1353
05/18/2015 423.55 557554 -1269 903761 -346207 1414 822 48 1204 0 0.00 0 81 1333
05/19/2015 423.43 556540 -1014 909394 -352854 1164 701 48 1265 0 0.00 0 90 1074
05/20/2015 423.18 554425 -2115 915028 -360603 1554 488 0 1284 0 0.00 0 81 1473
05/21/2015 422.90 552065 -2360 920662 -368597 1601 411 0 958 0 0.00 0 80 1521
05/22/2015 422.58 549383 -2682 926296 -- 1936 584 0 1471 0 0.00 0 100 1836
05/23/2015 422.50 548713 -670 931930 -- 1468 1130 0 2421 0 0.00 0 100 1368
05/24/2015 422.40 547874 -839 937563 -- 1590 1167 0 2308 0 0.00 0 95 1495
05/25/2015 422.30 547036 -838 943197 -396161 1498 1076 0 1780 0 0.00 0 95 1403
05/26/2015 422.14 545695 -1341 948831 -403136 1751 1075 0 -- 0 0.00 0 85 1666
05/27/2015 -- -- -- -- -- -- -- -- -- -- -- -- -- --
05/28/2015 -- -- -- -- -- -- -- -- -- -- -- -- -- --

Later | Latest

Warning! This data is preliminary and subject to revision.

Show FOL Map | Plot FOL Data | 1 Month FOL Data | Real-Time FOL Data | FOL Info